createdAt,value
2022-09-13T00:01:22.871Z,3.15
2022-09-13T00:03:51.370Z,3.10
2022-09-13T00:06:21.957Z,2.90
2022-09-13T00:08:51.138Z,3.08
2022-09-13T00:11:22.063Z,3.05
2022-09-13T00:13:51.088Z,3.00
2022-09-13T00:16:22.838Z,2.92
2022-09-13T00:18:52.846Z,2.97
2022-09-13T00:21:23.645Z,2.50
2022-09-13T00:23:53.696Z,2.63
2022-09-13T00:26:24.775Z,2.70
2022-09-13T00:28:54.832Z,2.60
2022-09-13T00:31:27.858Z,2.60
2022-09-13T00:33:57.149Z,2.03
2022-09-13T00:36:25.532Z,2.45
2022-09-13T00:38:54.291Z,2.50
2022-09-13T00:41:24.718Z,2.50
2022-09-13T00:43:55.744Z,2.03
2022-09-13T00:46:33.876Z,2.10
2022-09-13T00:49:08.437Z,2.15
2022-09-13T00:51:37.277Z,2.40
2022-09-13T00:54:06.694Z,2.28
2022-09-13T00:56:39.198Z,2.20
2022-09-13T00:59:11.494Z,2.17
2022-09-13T01:01:45.760Z,2.10
2022-09-13T01:04:16.530Z,2.15
2022-09-13T01:06:45.878Z,2.30
2022-09-13T01:09:14.942Z,2.22
2022-09-13T01:11:50.705Z,2.85
2022-09-13T01:14:20.928Z,2.20
2022-09-13T01:16:51.376Z,2.40
2022-09-13T01:19:20.203Z,1.98
2022-09-13T01:22:20.943Z,2.13
2022-09-13T01:25:04.832Z,2.30
2022-09-13T01:27:46.291Z,2.25
2022-09-13T01:30:19.724Z,1.85
2022-09-13T01:33:18.270Z,2.15
2022-09-13T01:36:00.043Z,2.28
2022-09-13T01:38:51.540Z,2.10
2022-09-13T01:41:42.891Z,2.05
2022-09-13T01:44:20.158Z,2.00
2022-09-13T01:47:00.259Z,2.10
2022-09-13T01:49:36.077Z,2.13
2022-09-13T01:52:10.400Z,2.45
2022-09-13T01:54:47.977Z,2.20
2022-09-13T01:57:22.259Z,1.92
2022-09-13T01:59:55.291Z,2.00
2022-09-13T02:02:31.907Z,2.40
2022-09-13T02:05:09.688Z,2.00
2022-09-13T02:07:42.408Z,2.22
2022-09-13T02:10:18.217Z,2.38
2022-09-13T02:12:49.771Z,2.00
2022-09-13T02:15:22.152Z,1.85
2022-09-13T02:17:58.167Z,1.92
2022-09-13T02:20:31.181Z,1.95
2022-09-13T02:23:04.709Z,1.90
2022-09-13T02:25:36.025Z,2.33
2022-09-13T02:28:09.504Z,2.33
2022-09-13T02:30:42.935Z,2.35
2022-09-13T02:33:18.085Z,2.38
2022-09-13T02:35:52.729Z,2.10
2022-09-13T02:38:26.224Z,2.47
2022-09-13T02:41:11.864Z,2.85
2022-09-13T02:43:45.487Z,2.63
2022-09-13T02:46:24.882Z,2.75
2022-09-13T02:49:01.756Z,2.45
2022-09-13T02:51:40.909Z,2.35
2022-09-13T02:54:20.385Z,2.08
2022-09-13T02:56:55.486Z,1.98
2022-09-13T02:59:26.212Z,2.00
2022-09-13T03:02:00.176Z,1.77
2022-09-13T03:04:31.853Z,1.80
2022-09-13T03:07:00.449Z,1.88
2022-09-13T03:09:29.810Z,2.15
2022-09-13T03:12:10.578Z,2.42
2022-09-13T03:14:48.609Z,2.00
2022-09-13T03:17:30.448Z,1.88
2022-09-13T03:20:19.566Z,2.10
2022-09-13T03:23:10.103Z,1.90
2022-09-13T03:26:09.923Z,2.00
2022-09-13T03:28:48.530Z,1.90
2022-09-13T03:31:31.633Z,1.90
2022-09-13T03:34:06.410Z,2.30
2022-09-13T03:36:41.861Z,1.80
2022-09-13T03:39:16.177Z,1.60
2022-09-13T03:41:51.440Z,1.70
2022-09-13T03:44:24.075Z,1.63
2022-09-13T03:46:58.474Z,2.10
2022-09-13T03:49:29.215Z,1.75
2022-09-13T03:52:00.639Z,1.90
2022-09-13T03:54:32.578Z,2.22
2022-09-13T03:57:12.355Z,1.77
2022-09-13T03:59:47.125Z,1.80
2022-09-13T04:02:16.303Z,2.00
2022-09-13T04:04:45.861Z,2.08
2022-09-13T04:07:19.785Z,2.00
2022-09-13T04:09:48.588Z,2.00
2022-09-13T04:12:18.142Z,2.05
2022-09-13T04:14:46.984Z,2.03
2022-09-13T04:17:16.354Z,1.90
2022-09-13T04:19:47.275Z,1.80
2022-09-13T04:22:18.156Z,2.17
2022-09-13T04:24:46.866Z,1.73
2022-09-13T04:27:15.330Z,1.88
2022-09-13T04:29:43.820Z,2.13
2022-09-13T04:32:12.099Z,1.67
2022-09-13T04:34:41.037Z,1.60
2022-09-13T04:37:10.800Z,1.70
2022-09-13T04:39:40.923Z,1.50
2022-09-13T04:42:10.699Z,1.80
2022-09-13T04:44:39.248Z,1.70
2022-09-13T04:47:09.117Z,1.70
2022-09-13T04:49:37.954Z,1.95
2022-09-13T04:52:06.290Z,1.80
2022-09-13T04:54:34.929Z,1.67
2022-09-13T04:57:05.410Z,1.65
2022-09-13T04:59:34.253Z,1.73
2022-09-13T05:02:02.928Z,1.50
2022-09-13T05:04:31.241Z,1.50
2022-09-13T05:07:00.303Z,1.73
2022-09-13T05:09:28.744Z,1.38
2022-09-13T05:11:57.198Z,1.48
2022-09-13T05:14:27.424Z,1.60
2022-09-13T05:16:55.813Z,1.30
2022-09-13T05:19:24.414Z,1.60
2022-09-13T05:21:53.114Z,1.85
2022-09-13T05:24:21.479Z,1.50
2022-09-13T05:26:49.967Z,1.50
2022-09-13T05:29:18.490Z,1.50
2022-09-13T05:31:48.771Z,1.50
2022-09-13T05:34:19.725Z,1.75
2022-09-13T05:36:54.045Z,1.60
2022-09-13T05:39:43.658Z,1.65
2022-09-13T05:42:11.810Z,1.80
2022-09-13T05:44:40.342Z,1.80
2022-09-13T05:47:11.149Z,1.60
2022-09-13T05:50:01.954Z,1.77
2022-09-13T05:52:30.628Z,1.50
2022-09-13T05:54:59.046Z,1.75
2022-09-13T05:57:27.720Z,1.65
2022-09-13T05:59:56.259Z,1.48
2022-09-13T06:02:26.499Z,2.08
2022-09-13T06:04:55.332Z,1.50
2022-09-13T06:07:23.923Z,1.60
2022-09-13T06:09:53.523Z,1.73
2022-09-13T06:12:22.384Z,1.70
2022-09-13T06:14:51.101Z,1.67
2022-09-13T06:17:19.684Z,1.60
2022-09-13T06:20:03.300Z,1.98
2022-09-13T06:22:33.494Z,1.85
2022-09-13T06:25:02.037Z,1.90
2022-09-13T06:27:32.123Z,2.05
2022-09-13T06:30:00.737Z,1.77
2022-09-13T06:32:29.155Z,1.63
2022-09-13T06:34:58.843Z,1.67
2022-09-13T06:37:27.421Z,1.67
2022-09-13T06:39:57.114Z,1.50
2022-09-13T06:42:25.753Z,1.85
2022-09-13T06:44:54.284Z,1.83
2022-09-13T06:47:22.843Z,1.67
2022-09-13T06:49:51.388Z,2.08
2022-09-13T06:52:21.525Z,1.90
2022-09-13T06:54:49.818Z,2.40
2022-09-13T06:57:19.474Z,2.20
2022-09-13T06:59:48.081Z,1.98
2022-09-13T07:02:17.008Z,2.00
2022-09-13T07:04:45.434Z,2.00
2022-09-13T07:07:14.943Z,1.90
2022-09-13T07:09:45.092Z,1.90
2022-09-13T07:12:16.634Z,2.17
2022-09-13T07:14:49.005Z,2.33
2022-09-13T07:17:17.792Z,2.67
2022-09-13T07:19:46.196Z,2.00
2022-09-13T07:22:17.120Z,2.65
2022-09-13T07:24:48.249Z,2.47
2022-09-13T07:27:17.309Z,2.28
2022-09-13T07:30:01.693Z,1.90
2022-09-13T07:32:30.390Z,1.90
2022-09-13T07:34:59.305Z,1.83
2022-09-13T07:37:29.666Z,1.80
2022-09-13T07:39:59.897Z,2.15
2022-09-13T07:42:28.329Z,2.35
2022-09-13T07:45:00.023Z,2.55
2022-09-13T07:47:29.012Z,2.10
2022-09-13T07:49:57.510Z,2.13
2022-09-13T07:52:26.006Z,1.90
2022-09-13T07:54:54.412Z,1.92
2022-09-13T07:57:24.547Z,1.73
2022-09-13T07:59:52.921Z,1.40
2022-09-13T08:02:21.850Z,1.70
2022-09-13T08:04:50.677Z,1.33
2022-09-13T08:07:19.398Z,1.50
2022-09-13T08:09:48.200Z,1.58
2022-09-13T08:12:17.084Z,1.70
2022-09-13T08:14:47.166Z,1.60
2022-09-13T08:17:15.748Z,1.60
2022-09-13T08:19:44.464Z,1.70
2022-09-13T08:22:13.465Z,2.10
2022-09-13T08:24:42.417Z,1.92
2022-09-13T08:27:11.117Z,1.55
2022-09-13T08:29:39.915Z,1.67
2022-09-13T08:32:10.307Z,1.80
2022-09-13T08:34:39.655Z,1.75
2022-09-13T08:37:08.243Z,1.90
2022-09-13T08:39:36.948Z,1.83
2022-09-13T08:42:31.383Z,1.50
2022-09-13T08:45:01.921Z,1.70
2022-09-13T08:47:43.200Z,1.92
2022-09-13T08:50:19.141Z,1.52
2022-09-13T08:52:59.552Z,1.48
2022-09-13T08:55:36.680Z,1.80
2022-09-13T08:58:19.790Z,1.60
2022-09-13T09:00:55.030Z,1.83
2022-09-13T09:03:31.225Z,1.60
2022-09-13T09:06:01.909Z,1.60
2022-09-13T09:08:36.455Z,1.33
2022-09-13T09:11:13.016Z,1.70
2022-09-13T09:13:51.051Z,1.40
2022-09-13T09:16:34.083Z,1.10
2022-09-13T09:19:15.762Z,1.40
2022-09-13T09:21:46.450Z,1.50
2022-09-13T09:24:22.413Z,1.40
2022-09-13T09:26:51.067Z,1.20
2022-09-13T09:29:26.059Z,1.25
2022-09-13T09:32:18.760Z,1.33
2022-09-13T09:35:02.331Z,1.30
2022-09-13T09:37:32.521Z,1.45
2022-09-13T09:40:05.108Z,1.48
2022-09-13T09:42:43.512Z,1.20
2022-09-13T09:45:29.457Z,1.38
2022-09-13T09:48:03.094Z,1.60
2022-09-13T09:50:36.615Z,1.58
2022-09-13T09:53:10.106Z,1.40
2022-09-13T09:55:45.917Z,1.40
2022-09-13T09:58:19.173Z,1.45
2022-09-13T10:00:55.159Z,1.38
2022-09-13T10:03:29.733Z,1.30
2022-09-13T10:06:08.833Z,1.80
2022-09-13T10:08:40.024Z,1.13
2022-09-13T10:11:10.150Z,1.60
2022-09-13T10:13:39.475Z,1.50
2022-09-13T10:16:25.730Z,1.27
2022-09-13T10:18:54.936Z,1.55
2022-09-13T10:21:29.259Z,1.30
2022-09-13T10:24:19.513Z,1.42
2022-09-13T10:26:49.072Z,1.40
2022-09-13T10:29:19.850Z,1.15
2022-09-13T10:31:54.009Z,1.13
2022-09-13T10:34:25.947Z,1.13
2022-09-13T10:37:00.624Z,1.40
2022-09-13T10:39:33.595Z,1.60
2022-09-13T10:42:06.395Z,1.23
2022-09-13T10:44:41.870Z,1.05
2022-09-13T10:47:19.658Z,1.33
2022-09-13T10:49:50.802Z,1.10
2022-09-13T10:52:33.994Z,1.35
2022-09-13T10:55:32.908Z,1.20
2022-09-13T10:58:17.070Z,1.45
2022-09-13T11:01:08.880Z,1.48
2022-09-13T11:04:01.277Z,1.35
2022-09-13T11:06:38.946Z,1.63
2022-09-13T11:09:16.166Z,1.40
2022-09-13T11:11:52.159Z,1.65
2022-09-13T11:14:43.455Z,1.52
2022-09-13T11:17:24.783Z,1.30
2022-09-13T11:20:15.323Z,1.50
2022-09-13T11:23:08.921Z,1.30
2022-09-13T11:26:00.199Z,1.55
2022-09-13T11:28:41.815Z,1.02
2022-09-13T11:31:23.154Z,1.48
2022-09-13T11:34:07.041Z,1.42
2022-09-13T11:36:53.539Z,1.35
2022-09-13T11:39:34.199Z,1.30
2022-09-13T11:42:16.298Z,1.40
2022-09-13T11:45:21.265Z,1.35
2022-09-13T11:48:17.300Z,1.40
2022-09-13T11:50:59.050Z,1.25
2022-09-13T11:53:50.636Z,1.20
2022-09-13T11:56:27.024Z,1.63
2022-09-13T11:59:04.903Z,1.30
2022-09-13T12:01:40.462Z,1.17
2022-09-13T12:04:17.362Z,1.40
2022-09-13T12:06:55.939Z,1.40
2022-09-13T12:09:30.347Z,1.30
2022-09-13T12:12:06.983Z,1.23
2022-09-13T12:14:46.957Z,1.20
2022-09-13T12:17:27.449Z,1.10
2022-09-13T12:20:00.479Z,1.08
2022-09-13T12:22:34.575Z,1.20
2022-09-13T12:25:08.203Z,1.35
2022-09-13T12:27:45.007Z,1.20
2022-09-13T12:30:20.891Z,1.20
2022-09-13T12:32:50.597Z,1.60
2022-09-13T12:35:27.260Z,1.10
2022-09-13T12:38:21.546Z,1.30
2022-09-13T12:41:20.543Z,1.20
2022-09-13T12:44:21.833Z,1.45
2022-09-13T12:47:26.075Z,1.52
2022-09-13T12:53:23.773Z,1.30
2022-09-13T12:56:16.845Z,1.27
2022-09-13T12:59:05.765Z,1.00
2022-09-13T13:01:35.517Z,1.30
2022-09-13T13:04:13.125Z,1.30
2022-09-13T13:06:52.585Z,1.17
2022-09-13T13:09:30.273Z,1.20
2022-09-13T13:12:00.982Z,1.05
2022-09-13T13:14:46.542Z,1.17
2022-09-13T13:17:42.171Z,1.20
2022-09-13T13:20:47.953Z,1.17
2022-09-13T13:23:27.410Z,1.40
2022-09-13T13:26:13.670Z,1.10
2022-09-13T13:31:36.957Z,1.23
2022-09-13T13:34:33.695Z,1.20
2022-09-13T13:37:07.054Z,0.98
2022-09-13T13:39:42.291Z,1.17
2022-09-13T13:42:25.780Z,1.08
2022-09-13T13:45:09.418Z,1.08
2022-09-13T13:48:07.802Z,1.50
2022-09-13T13:50:39.297Z,1.33
2022-09-13T13:53:35.176Z,1.08
2022-09-13T13:56:19.870Z,1.17
2022-09-13T13:58:53.613Z,1.23
2022-09-13T14:01:27.549Z,1.20
2022-09-13T14:04:47.658Z,1.20
2022-09-13T14:07:39.126Z,0.90
2022-09-13T14:10:16.875Z,1.10
2022-09-13T14:13:10.913Z,1.23
2022-09-13T14:15:55.054Z,1.15
2022-09-13T14:18:56.199Z,1.30
2022-09-13T14:21:29.791Z,1.60
2022-09-13T14:24:30.202Z,1.30
2022-09-13T14:27:20.089Z,1.40
2022-09-13T14:29:56.583Z,1.20
2022-09-13T14:44:24.936Z,1.33
2022-09-13T14:47:37.338Z,1.67
2022-09-13T14:50:31.559Z,1.20
2022-09-13T14:53:10.607Z,1.17
2022-09-13T14:56:10.740Z,1.50
2022-09-13T14:58:58.379Z,1.10
2022-09-13T15:01:30.953Z,1.48
2022-09-13T15:04:03.082Z,1.30
2022-09-13T15:06:33.659Z,1.20
2022-09-13T15:09:15.106Z,1.30
2022-09-13T15:12:03.417Z,1.50
2022-09-13T15:15:17.378Z,1.20
2022-09-13T15:18:15.398Z,1.50
2022-09-13T15:24:32.014Z,1.40
2022-09-13T15:27:08.065Z,1.35
2022-09-13T15:29:37.844Z,1.30
2022-09-13T15:32:08.055Z,1.25
2022-09-13T15:34:48.544Z,1.20
2022-09-13T15:37:20.093Z,1.30
2022-09-13T15:40:03.675Z,1.38
2022-09-13T15:42:32.172Z,1.42
2022-09-13T15:45:01.743Z,1.70
2022-09-13T15:47:30.485Z,1.35
2022-09-13T15:50:01.249Z,1.60
2022-09-13T15:52:29.726Z,1.50
2022-09-13T15:54:59.951Z,1.88
2022-09-13T15:57:31.561Z,1.52
2022-09-13T16:00:05.636Z,1.63
2022-09-13T16:02:36.714Z,1.67
2022-09-13T16:05:05.907Z,1.40
2022-09-13T16:07:34.413Z,1.88
2022-09-13T16:10:06.342Z,1.88
2022-09-13T16:12:35.888Z,1.55
2022-09-13T16:15:05.923Z,1.60
2022-09-13T16:17:34.621Z,1.50
2022-09-13T16:20:03.855Z,1.40
2022-09-13T16:22:33.030Z,1.10
2022-09-13T16:25:11.169Z,1.40
2022-09-13T16:27:40.917Z,1.73
2022-09-13T16:30:13.838Z,1.80
2022-09-13T16:32:43.013Z,1.80
2022-09-13T16:35:17.831Z,1.80
2022-09-13T16:37:51.916Z,1.70
2022-09-13T16:40:22.039Z,1.35
2022-09-13T16:43:00.463Z,1.52
2022-09-13T16:45:35.815Z,1.58
2022-09-13T16:48:06.126Z,2.15
2022-09-13T16:50:35.218Z,1.40
2022-09-13T16:53:05.946Z,1.40
2022-09-13T16:55:39.039Z,1.50
2022-09-13T16:58:08.412Z,1.45
2022-09-13T17:00:36.634Z,1.25
2022-09-13T17:03:05.325Z,1.50
2022-09-13T17:05:34.506Z,1.48
2022-09-13T17:08:04.050Z,1.20
2022-09-13T17:10:33.484Z,1.40
2022-09-13T17:13:06.296Z,1.42
2022-09-13T17:15:39.631Z,1.50
2022-09-13T17:18:09.079Z,1.42
2022-09-13T17:20:38.613Z,1.63
2022-09-13T17:23:07.294Z,1.25
2022-09-13T17:25:35.710Z,1.40
2022-09-13T17:28:06.191Z,1.90
2022-09-13T17:30:37.495Z,1.40
2022-09-13T17:33:07.166Z,1.30
2022-09-13T17:35:38.041Z,1.58
2022-09-13T17:38:07.342Z,1.42
2022-09-13T17:40:35.770Z,1.67
2022-09-13T17:43:09.107Z,1.52
2022-09-13T17:45:38.207Z,1.30
2022-09-13T17:48:07.439Z,1.58
2022-09-13T17:50:36.795Z,1.42
2022-09-13T17:53:05.516Z,1.73
2022-09-13T17:55:35.041Z,1.50
2022-09-13T17:58:03.636Z,1.42
2022-09-13T18:00:33.379Z,1.75
2022-09-13T18:03:01.981Z,1.60
2022-09-13T18:05:30.652Z,1.58
2022-09-13T18:07:59.355Z,1.55
2022-09-13T18:10:49.177Z,1.80
2022-09-13T18:13:16.963Z,2.20
2022-09-13T18:15:47.750Z,2.30
2022-09-13T18:18:16.326Z,1.85
2022-09-13T18:20:48.634Z,2.03
2022-09-13T18:23:17.833Z,1.77
2022-09-13T18:25:46.496Z,2.10
2022-09-13T18:28:16.243Z,1.77
2022-09-13T18:30:58.047Z,1.83
2022-09-13T18:33:26.966Z,1.80
2022-09-13T18:36:02.008Z,2.08
2022-09-13T18:38:34.016Z,2.30
2022-09-13T18:41:05.475Z,1.90
2022-09-13T18:43:36.295Z,1.77
2022-09-13T18:46:08.618Z,1.77
2022-09-13T18:48:38.774Z,1.95
2022-09-13T18:51:10.626Z,2.00
2022-09-13T18:53:40.350Z,2.20
2022-09-13T18:56:10.619Z,2.70
2022-09-13T18:58:40.808Z,3.30
2022-09-13T19:01:13.788Z,2.67
2022-09-13T19:03:49.373Z,3.08
2022-09-13T19:06:20.157Z,3.13
2022-09-13T19:08:49.809Z,3.42
2022-09-13T19:11:42.569Z,3.10
2022-09-13T19:14:08.845Z,2.70
2022-09-13T19:16:45.315Z,2.70
2022-09-13T19:19:13.841Z,2.40
2022-09-13T19:21:43.422Z,2.58
2022-09-13T19:24:19.524Z,2.88
2022-09-13T19:26:53.773Z,2.60
2022-09-13T19:29:24.165Z,3.05
2022-09-13T19:31:59.747Z,3.20
2022-09-13T19:34:28.224Z,3.25
2022-09-13T19:37:02.923Z,3.30
2022-09-13T19:39:33.035Z,3.28
2022-09-13T19:42:01.886Z,3.53
2022-09-13T19:44:31.692Z,4.05
2022-09-13T19:47:44.857Z,3.65
2022-09-13T19:49:51.535Z,3.78
2022-09-13T19:52:21.054Z,3.95
2022-09-13T19:54:52.305Z,4.00
2022-09-13T19:57:20.704Z,3.75
2022-09-13T19:59:49.333Z,4.38
2022-09-13T20:02:19.895Z,3.45
2022-09-13T20:04:49.975Z,4.15
2022-09-13T20:07:18.825Z,3.63
2022-09-13T20:09:47.957Z,3.40
2022-09-13T20:12:16.751Z,3.75
2022-09-13T20:14:45.073Z,3.38
2022-09-13T20:17:13.595Z,3.80
2022-09-13T20:19:49.276Z,3.90
2022-09-13T20:22:18.888Z,4.18
2022-09-13T20:24:47.283Z,4.18
2022-09-13T20:27:16.292Z,4.78
2022-09-13T20:29:44.585Z,4.32
2022-09-13T20:32:13.881Z,4.50
2022-09-13T20:34:44.422Z,4.68
2022-09-13T20:37:12.783Z,5.47
2022-09-13T20:39:42.743Z,5.10
2022-09-13T20:42:11.345Z,4.75
2022-09-13T20:44:41.201Z,5.13
2022-09-13T20:47:09.611Z,4.90
2022-09-13T20:49:38.273Z,4.88
2022-09-13T20:52:09.032Z,5.18
2022-09-13T20:54:37.347Z,4.88
2022-09-13T20:57:06.732Z,5.60
2022-09-13T20:59:35.251Z,6.00
2022-09-13T21:02:03.845Z,6.25
2022-09-13T21:04:32.830Z,6.00
2022-09-13T21:07:18.540Z,5.85
2022-09-13T21:09:48.542Z,6.18
2022-09-13T21:12:17.240Z,6.18
2022-09-13T21:14:46.594Z,5.80
2022-09-13T21:17:14.979Z,6.50
2022-09-13T21:19:43.262Z,6.22
2022-09-13T21:22:11.964Z,6.35
2022-09-13T21:24:40.245Z,5.97
2022-09-13T21:27:12.005Z,6.30
2022-09-13T21:29:40.862Z,5.97
2022-09-13T21:32:09.484Z,6.20
2022-09-13T21:34:39.202Z,5.65
2022-09-13T21:37:08.582Z,6.35
2022-09-13T21:39:37.068Z,6.50
2022-09-13T21:42:05.940Z,6.28
2022-09-13T21:44:35.913Z,7.43
2022-09-13T21:47:04.354Z,6.55
2022-09-13T21:49:32.760Z,6.68
2022-09-13T21:52:01.372Z,7.32
2022-09-13T21:54:29.912Z,7.70
2022-09-13T21:56:58.492Z,8.30
2022-09-13T21:59:26.784Z,8.60
2022-09-13T22:01:58.264Z,8.93
2022-09-13T22:04:27.712Z,9.10
2022-09-13T22:06:56.134Z,8.95
2022-09-13T22:09:27.374Z,9.10
2022-09-13T22:11:57.267Z,10.02
2022-09-13T22:14:26.886Z,10.18
2022-09-13T22:16:56.960Z,10.85
2022-09-13T22:19:27.627Z,11.70
2022-09-13T22:21:59.392Z,15.43
2022-09-13T22:24:32.198Z,16.90
2022-09-13T22:27:01.223Z,15.95
2022-09-13T22:29:30.454Z,16.10
2022-09-13T22:32:00.568Z,16.38
2022-09-13T22:34:31.132Z,16.50
2022-09-13T22:37:00.283Z,14.95
2022-09-13T22:39:28.662Z,13.85
2022-09-13T22:41:57.090Z,14.07
2022-09-13T22:44:25.919Z,13.77
2022-09-13T22:46:54.862Z,14.25
2022-09-13T22:49:24.891Z,14.60
2022-09-13T22:51:53.795Z,15.45
2022-09-13T22:54:22.599Z,14.55
2022-09-13T22:56:51.301Z,15.05
2022-09-13T22:59:22.235Z,15.15
2022-09-13T23:01:50.931Z,15.30
2022-09-13T23:04:19.836Z,15.48
2022-09-13T23:06:49.833Z,14.68
2022-09-13T23:09:19.458Z,12.95
2022-09-13T23:11:48.865Z,12.82
2022-09-13T23:14:20.129Z,11.07
2022-09-13T23:16:51.579Z,10.07
2022-09-13T23:19:22.360Z,9.57
2022-09-13T23:21:54.955Z,9.70
2022-09-13T23:24:24.524Z,9.20
2022-09-13T23:26:56.499Z,8.75
2022-09-13T23:29:25.717Z,8.30
2022-09-13T23:31:54.981Z,8.45
2022-09-13T23:34:25.846Z,8.73
2022-09-13T23:36:55.774Z,8.73
2022-09-13T23:39:24.728Z,9.45
2022-09-13T23:41:53.983Z,9.50
2022-09-13T23:44:22.265Z,9.60
2022-09-13T23:46:51.369Z,9.63
2022-09-13T23:49:19.749Z,8.80
2022-09-13T23:51:49.193Z,8.23
2022-09-13T23:54:19.336Z,7.40
2022-09-13T23:56:47.814Z,6.90
2022-09-13T23:59:16.850Z,6.40
